Time;durP1;ratioP1;P1;durP2;ratioP2;P2;SDS_P1;SDS_P2;PMS_P1;PMS_P2;Temp;Humidity;BMP_temperature;BMP_pressure;BME280_temperature;BME280_humidity;BME280_pressure;Samples;Min_cycle;Max_cycle;Signal;HPM_P1;HPM_P2
2023/10/08 00:01:55;;;;;;;18.95;10.30;;;;;;;15.35;100.00;101037.66;4739662;29;20543;-81
2023/10/08 00:05:56;;;;;;;;;;;;;;;;;;;;;
2023/10/08 00:17:04;;;;;;;20.52;8.55;;;;;;;15.18;100.00;101041.28;4841890;29;20566;-80
2023/10/08 00:20:25;;;;;;;29.60;9.32;;;;;;;15.17;100.00;101040.44;4838840;29;20060;-80
2023/10/08 00:23:56;;;;;;;19.70;8.88;;;;;;;15.18;100.00;101038.63;4853273;29;20041;-86
2023/10/08 00:30:18;;;;;;;17.52;9.45;;;;;;;15.16;100.00;101035.28;4845126;29;20037;-86
2023/10/08 00:33:49;;;;;;;;;;;;;;;;;;;;;
2023/10/08 00:37:00;;;;;;;18.13;8.25;;;;;;;14.98;100.00;101013.09;4836526;29;20061;-89
2023/10/08 00:40:24;;;;;;;23.63;9.32;;;;;;;14.92;100.00;101039.50;4837392;29;20168;-87
2023/10/08 00:43:54;;;;;;;15.57;8.45;;;;;;;14.80;100.00;101036.25;4758958;30;20099;-87
2023/10/08 00:50:42;;;;;;;20.48;10.13;;;;;;;14.85;100.00;101048.09;4828208;29;20041;-87
2023/10/08 00:53:47;;;;;;;18.50;9.02;;;;;;;14.90;100.00;101042.31;4847483;29;20038;-91
2023/10/08 00:57:24;;;;;;;;;;;;;;;;;;;;;
2023/10/08 01:00:29;;;;;;;19.15;7.95;;;;;;;14.96;100.00;101039.00;4839472;29;20037;-86
2023/10/08 01:04:09;;;;;;;;;;;;;;;;;;;;;
2023/10/08 01:10:03;;;;;;;18.45;9.18;;;;;;;14.93;100.00;101049.13;4827832;29;20078;-83
2023/10/08 01:13:15;;;;;;;16.40;7.63;;;;;;;14.97;100.00;101053.16;4840105;29;20049;-85
2023/10/08 01:16:09;;;;;;;13.80;7.18;;;;;;;14.94;100.00;101051.63;4830905;29;20053;-86
2023/10/08 01:18:50;;;;;;;19.52;7.82;;;;;;;14.88;100.00;101055.78;4835625;29;20101;-85
2023/10/08 01:21:43;;;;;;;15.00;7.90;;;;;;;14.91;100.00;101051.13;4808916;29;20447;-86
2023/10/08 01:24:35;;;;;;;28.48;13.57;;;;;;;14.84;100.00;101054.41;4835711;29;20029;-85
2023/10/08 01:27:23;;;;;;;;;;;;;;;;;;;;;
2023/10/08 01:30:27;;;;;;;20.27;11.00;;;;;;;14.78;100.00;101060.31;4832377;29;20046;-80
2023/10/08 01:33:31;;;;;;;17.20;9.75;;;;;;;14.73;100.00;101059.97;4813762;29;20069;-84
2023/10/08 01:36:36;;;;;;;;;;;;;;;;;;;;;
2023/10/08 01:43:16;;;;;;;20.98;9.13;;;;;;;14.75;100.00;101077.44;4838618;29;20034;-81
2023/10/08 01:46:27;;;;;;;20.42;9.45;;;;;;;14.70;100.00;101062.97;4838969;29;20129;-87
2023/10/08 01:49:29;;;;;;;16.90;8.90;;;;;;;14.63;100.00;101062.75;4832591;29;20049;-85
2023/10/08 01:53:10;;;;;;;18.42;7.90;;;;;;;14.61;100.00;101060.25;4851962;29;20098;-87
2023/10/08 01:59:47;;;;;;;;;;;;;;;;;;;;;
2023/10/08 02:02:15;;;;;;;18.67;8.23;;;;;;;14.64;100.00;101035.13;4820846;29;20040;-87
2023/10/08 02:04:56;;;;;;;19.90;8.07;;;;;;;14.66;100.00;101025.19;4821930;29;20508;-86
2023/10/08 02:07:22;;;;;;;17.85;7.80;;;;;;;14.63;100.00;101028.16;4822880;29;20042;-85
2023/10/08 02:09:48;;;;;;;15.90;8.25;;;;;;;14.57;100.00;101013.63;4842512;29;20471;-84
2023/10/08 02:12:14;;;;;;;18.67;7.95;;;;;;;14.61;100.00;101022.16;4825035;29;20136;-87
2023/10/08 02:14:40;;;;;;;13.10;7.03;;;;;;;14.60;100.00;101026.66;4824260;29;20049;-87
2023/10/08 02:17:06;;;;;;;23.38;6.97;;;;;;;14.56;100.00;101021.78;4823536;29;20041;-87
2023/10/08 02:19:34;;;;;;;16.25;7.05;;;;;;;14.55;100.00;101020.13;4843731;29;20090;-82
2023/10/08 02:22:00;;;;;;;11.13;6.78;;;;;;;14.51;100.00;101031.06;4812693;29;20506;-81
2023/10/08 02:24:26;;;;;;;20.75;7.97;;;;;;;14.49;100.00;101022.41;4835260;29;20045;-81
2023/10/08 02:26:52;;;;;;;17.30;7.30;;;;;;;14.44;100.00;101013.22;4801554;29;20141;-81
2023/10/08 02:29:19;;;;;;;18.85;8.40;;;;;;;14.35;100.00;101026.47;4836837;29;20727;-82
2023/10/08 02:31:44;;;;;;;13.70;7.07;;;;;;;14.26;100.00;101024.72;4823490;29;20550;-82
2023/10/08 02:34:12;;;;;;;14.32;7.22;;;;;;;14.28;100.00;101025.44;4825607;29;20052;-81
2023/10/08 02:36:40;;;;;;;19.42;7.32;;;;;;;14.32;100.00;101023.28;4837302;29;20042;-81
2023/10/08 02:39:25;;;;;;;11.90;7.25;;;;;;;14.30;100.00;101010.13;4800696;29;20038;-80
2023/10/08 02:41:52;;;;;;;18.67;8.07;;;;;;;14.26;100.00;100991.00;4818992;29;20088;-80
2023/10/08 02:44:20;;;;;;;14.18;7.28;;;;;;;14.22;100.00;101008.25;4845859;29;20050;-81
2023/10/08 02:46:47;;;;;;;12.57;7.72;;;;;;;14.25;100.00;100999.97;4809340;29;20628;-81
2023/10/08 02:49:22;;;;;;;13.60;7.25;;;;;;;14.32;100.00;100994.88;4825481;29;20034;-79
2023/10/08 02:51:53;;;;;;;14.48;7.43;;;;;;;14.32;100.00;100996.69;4808040;29;20067;-81
2023/10/08 02:54:23;;;;;;;12.27;6.82;;;;;;;14.27;100.00;100989.16;4823055;29;20062;-81
2023/10/08 02:57:03;;;;;;;12.80;7.18;;;;;;;14.31;100.00;100979.06;4811487;29;20153;-80
2023/10/08 02:59:40;;;;;;;12.25;6.95;;;;;;;14.26;100.00;100977.72;4810741;29;20480;-81
2023/10/08 03:02:18;;;;;;;12.40;6.65;;;;;;;14.25;100.00;100996.50;4809640;29;20034;-80
2023/10/08 03:04:52;;;;;;;14.15;8.40;;;;;;;14.15;100.00;100996.56;4809764;29;20045;-80
2023/10/08 03:07:22;;;;;;;14.10;7.15;;;;;;;14.06;100.00;101001.00;4825633;29;20475;-80
2023/10/08 03:09:51;;;;;;;12.55;7.38;;;;;;;14.10;100.00;101001.50;4807809;29;20042;-81
2023/10/08 03:12:24;;;;;;;12.77;7.43;;;;;;;14.14;100.00;100995.72;4811728;29;20106;-79
2023/10/08 03:15:01;;;;;;;14.23;7.35;;;;;;;14.07;100.00;100997.34;4812837;29;20045;-81
2023/10/08 03:17:35;;;;;;;11.95;6.85;;;;;;;14.05;100.00;100993.19;4829072;29;20034;-80
2023/10/08 03:22:45;;;;;;;14.77;7.32;;;;;;;14.12;100.00;100996.88;4834939;29;20058;-81
2023/10/08 03:25:16;;;;;;;10.38;7.20;;;;;;;14.15;100.00;100991.25;4817819;29;20867;-81
2023/10/08 03:27:43;;;;;;;15.05;7.55;;;;;;;14.07;100.00;101001.81;4850859;29;20504;-80
2023/10/08 03:30:14;;;;;;;18.67;7.32;;;;;;;14.04;100.00;100987.03;4819458;29;20033;-81
2023/10/08 03:32:54;;;;;;;23.23;8.77;;;;;;;14.06;100.00;101003.66;4835004;29;20234;-81
2023/10/08 03:35:27;;;;;;;16.40;7.32;;;;;;;13.83;100.00;101004.13;4835420;29;20445;-81
2023/10/08 03:37:54;;;;;;;16.33;8.38;;;;;;;13.71;100.00;101003.50;4814646;29;20053;-82
2023/10/08 03:42:49;;;;;;;13.65;7.28;;;;;;;13.81;100.00;100992.00;4833190;29;20091;-80
2023/10/08 03:45:22;;;;;;;11.07;6.63;;;;;;;13.78;100.00;100993.09;4817730;29;20033;-81
2023/10/08 03:48:03;;;;;;;12.02;6.97;;;;;;;13.74;100.00;100989.09;4833110;29;20605;-81
2023/10/08 03:50:43;;;;;;;11.40;6.60;;;;;;;13.71;100.00;100998.19;4816837;29;20070;-80
2023/10/08 03:53:11;;;;;;;16.83;7.68;;;;;;;13.71;100.00;100992.06;4820017;29;20088;-80
2023/10/08 03:55:40;;;;;;;11.95;6.30;;;;;;;13.78;100.00;100993.09;4835379;29;20396;-81
2023/10/08 03:58:12;;;;;;;16.23;7.28;;;;;;;13.79;100.00;101002.78;4830964;29;20069;-81
2023/10/08 04:00:42;;;;;;;14.65;7.22;;;;;;;13.81;100.00;100989.31;4828136;29;20073;-80
2023/10/08 04:03:11;;;;;;;13.05;7.00;;;;;;;13.84;100.00;100992.50;4834317;29;20046;-81
2023/10/08 04:05:44;;;;;;;15.32;6.78;;;;;;;13.66;100.00;100997.81;4832980;29;20057;-81
2023/10/08 04:08:42;;;;;;;14.77;7.70;;;;;;;13.53;100.00;101003.50;4836489;29;20373;-81
2023/10/08 04:12:11;;;;;;;14.98;6.70;;;;;;;13.58;100.00;100985.31;4833778;29;20488;-82
2023/10/08 04:14:05;;;;;;;11.55;7.15;;;;;;;13.60;100.00;100993.94;4837767;29;20141;-81
2023/10/08 04:16:38;;;;;;;11.00;6.35;;;;;;;13.68;100.00;100995.81;4835864;29;20042;-79
2023/10/08 04:19:08;;;;;;;10.88;7.30;;;;;;;13.71;100.00;100995.53;4793500;29;20042;-84
2023/10/08 04:21:33;;;;;;;13.40;7.07;;;;;;;13.70;100.00;101007.16;4838484;29;20034;-86
2023/10/08 04:24:03;;;;;;;17.17;7.85;;;;;;;13.67;100.00;101002.13;4825614;29;20042;-85
2023/10/08 04:26:31;;;;;;;10.98;6.93;;;;;;;13.67;100.00;100993.31;4847324;29;20049;-87
2023/10/08 04:28:58;;;;;;;13.02;7.53;;;;;;;13.71;100.00;101014.13;4831558;29;20097;-85
2023/10/08 04:31:28;;;;;;;12.95;6.78;;;;;;;13.74;100.00;101018.31;4832275;29;20041;-86
2023/10/08 04:34:00;;;;;;;11.00;6.45;;;;;;;13.74;100.00;101019.13;4845864;29;20034;-85
2023/10/08 04:36:26;;;;;;;10.20;6.47;;;;;;;13.72;100.00;101021.13;4832222;29;20105;-87
2023/10/08 04:38:54;;;;;;;10.57;6.30;;;;;;;13.66;100.00;101020.88;4846188;29;20049;-87
2023/10/08 04:41:27;;;;;;;8.07;6.85;;;;;;;13.67;100.00;101014.56;4838911;29;20041;-86
2023/10/08 04:43:55;;;;;;;10.23;6.93;;;;;;;13.61;100.00;101014.22;4816269;29;20120;-87
2023/10/08 04:49:08;;;;;;;15.95;7.72;;;;;;;13.27;100.00;100998.84;4843178;29;20041;-87
2023/10/08 04:51:43;;;;;;;11.43;7.65;;;;;;;13.24;100.00;100991.19;4814262;29;20034;-86
2023/10/08 04:54:16;;;;;;;14.90;7.95;;;;;;;13.23;100.00;100990.38;4846709;29;20044;-86
2023/10/08 04:56:43;;;;;;;13.45;8.43;;;;;;;13.15;100.00;100999.06;4831334;29;20041;-86
2023/10/08 04:59:11;;;;;;;18.23;6.88;;;;;;;13.15;100.00;101000.91;4846406;29;20045;-86
2023/10/08 05:01:47;;;;;;;12.35;6.82;;;;;;;13.06;100.00;101012.41;4835646;29;20045;-87
2023/10/08 05:04:23;;;;;;;9.45;6.22;;;;;;;12.98;100.00;100997.22;4817610;29;20082;-86
2023/10/08 05:17:56;;;;;;;8.23;5.43;;;;;;;12.95;100.00;100982.41;4839738;29;20041;-85
2023/10/08 05:20:19;;;;;;;12.82;6.00;;;;;;;13.01;100.00;100978.34;4839587;29;20050;-86
2023/10/08 05:22:55;;;;;;;9.07;6.07;;;;;;;13.05;100.00;100986.81;4827282;29;20062;-86
2023/10/08 05:30:38;;;;;;;10.73;7.72;;;;;;;13.25;100.00;100976.97;4843030;29;20076;-87
2023/10/08 05:33:06;;;;;;;7.57;6.40;;;;;;;13.33;100.00;100995.63;4828746;29;20072;-86
2023/10/08 05:43:48;;;;;;;9.25;6.53;;;;;;;13.38;100.00;100995.16;4844352;29;20073;-86
2023/10/08 05:49:01;;;;;;;8.60;6.75;;;;;;;13.45;100.00;101000.72;4842281;29;20041;-86
2023/10/08 06:13:06;;;;;;;14.65;7.32;;;;;;;13.47;100.00;101023.47;4835108;29;20089;-87
2023/10/08 06:15:49;;;;;;;17.58;8.60;;;;;;;13.48;100.00;101030.47;4840142;29;20053;-87
2023/10/08 06:18:19;;;;;;;12.10;7.88;;;;;;;13.48;100.00;101038.44;4823503;29;20101;-87
2023/10/08 06:20:50;;;;;;;15.27;8.27;;;;;;;13.52;100.00;101023.91;4839498;29;20034;-87
2023/10/08 06:23:22;;;;;;;16.87;9.30;;;;;;;13.49;100.00;101028.66;4823926;29;20037;-87
2023/10/08 06:26:05;;;;;;;17.58;11.23;;;;;;;13.52;100.00;101029.22;4842012;29;20041;-86
2023/10/08 06:28:34;;;;;;;23.00;10.00;;;;;;;13.51;100.00;101024.06;4821905;29;20053;-87
2023/10/08 06:31:03;;;;;;;19.73;9.48;;;;;;;13.54;100.00;101037.03;4817808;29;20029;-86
2023/10/08 06:33:33;;;;;;;25.70;9.10;;;;;;;13.56;100.00;101048.34;4826160;29;20495;-85
2023/10/08 06:36:02;;;;;;;25.23;10.15;;;;;;;13.58;100.00;101034.91;4829749;29;20503;-85
2023/10/08 06:38:30;;;;;;;16.98;10.15;;;;;;;13.55;100.00;101036.06;4819807;29;20056;-78
2023/10/08 06:41:15;;;;;;;46.55;9.98;;;;;;;13.57;100.00;101036.72;4823538;29;20116;-77
2023/10/08 06:44:24;;;;;;;18.63;9.18;;;;;;;13.61;100.00;101032.81;4853131;29;20034;-78
2023/10/08 06:46:32;;;;;;;17.52;8.88;;;;;;;13.62;100.00;101036.28;4850591;29;20053;-78
2023/10/08 06:48:59;;;;;;;25.73;10.10;;;;;;;13.64;100.00;101043.13;4836841;29;20044;-78
2023/10/08 06:51:25;;;;;;;25.05;9.02;;;;;;;13.63;100.00;101043.28;4827288;29;20065;-79
2023/10/08 06:53:53;;;;;;;22.27;10.05;;;;;;;13.64;100.00;101048.44;4831490;29;20487;-78
2023/10/08 06:56:19;;;;;;;20.05;9.07;;;;;;;13.62;100.00;101037.13;4838542;29;20057;-78
2023/10/08 06:58:52;;;;;;;34.28;9.75;;;;;;;13.62;100.00;101034.47;4853299;29;20043;-77
2023/10/08 07:01:24;;;;;;;47.60;9.80;;;;;;;13.67;100.00;101044.66;4833261;29;20483;-78
2023/10/08 07:04:06;;;;;;;19.98;9.75;;;;;;;13.68;100.00;101062.25;4824610;29;20025;-78
2023/10/08 07:06:33;;;;;;;52.95;9.85;;;;;;;13.60;100.00;101062.19;4817983;29;20042;-76
2023/10/08 07:09:04;;;;;;;42.97;9.73;;;;;;;13.54;100.00;101058.28;4847848;29;20428;-77
2023/10/08 07:11:34;;;;;;;11.75;9.23;;;;;;;13.56;100.00;101066.94;4850052;29;20041;-78
2023/10/08 07:14:01;;;;;;;12.23;8.25;;;;;;;13.51;100.00;101046.13;4836479;29;20093;-77
2023/10/08 07:16:28;;;;;;;132.48;9.60;;;;;;;13.48;100.00;101043.75;4817275;29;20037;-77
2023/10/08 07:19:01;;;;;;;18.92;8.50;;;;;;;13.48;100.00;101046.41;4839696;29;20049;-76
2023/10/08 07:21:38;;;;;;;9.75;8.65;;;;;;;13.54;100.00;101050.31;4844395;29;20034;-79
2023/10/08 07:24:09;;;;;;;95.55;9.30;;;;;;;13.52;100.00;101050.47;4838129;29;20395;-78
2023/10/08 07:26:37;;;;;;;9.32;7.80;;;;;;;13.53;100.00;101056.63;4844312;29;20108;-79
2023/10/08 07:29:11;;;;;;;8.93;7.60;;;;;;;13.57;100.00;101067.78;4847718;29;20049;-79
2023/10/08 07:31:41;;;;;;;72.50;9.05;;;;;;;13.60;100.00;101072.81;4847741;29;20056;-79
2023/10/08 07:34:18;;;;;;;41.88;8.38;;;;;;;13.56;100.00;101087.34;4836744;29;20038;-80
2023/10/08 07:36:55;;;;;;;13.90;7.43;;;;;;;13.56;100.00;101090.00;4818238;29;20041;-77
2023/10/08 07:41:58;;;;;;;8.32;6.97;;;;;;;13.60;100.00;101091.41;4853294;29;20132;-78
2023/10/08 07:44:25;;;;;;;7.80;7.00;;;;;;;13.72;100.00;101092.84;4833741;29;20041;-77
2023/10/08 07:46:56;;;;;;;6.90;6.20;;;;;;;13.83;100.00;101086.50;4856682;29;20037;-78
2023/10/08 07:49:25;;;;;;;8.73;6.45;;;;;;;13.88;100.00;101092.19;4828995;29;20044;-77
2023/10/08 07:51:51;;;;;;;7.45;6.18;;;;;;;13.95;100.00;101083.63;4823584;29;20041;-79
2023/10/08 07:54:19;;;;;;;9.93;5.75;;;;;;;14.03;100.00;101096.97;4836493;29;20045;-77
2023/10/08 07:56:47;;;;;;;9.52;6.55;;;;;;;14.13;100.00;101099.56;4838844;29;20045;-78
2023/10/08 07:59:14;;;;;;;8.45;6.80;;;;;;;14.14;100.00;101101.25;4838570;29;20109;-77
2023/10/08 08:01:42;;;;;;;7.53;6.72;;;;;;;14.18;100.00;101099.09;4855926;29;20486;-77
2023/10/08 08:04:10;;;;;;;7.63;6.25;;;;;;;14.25;100.00;101108.16;4824162;29;20096;-77
2023/10/08 08:06:37;;;;;;;7.68;6.20;;;;;;;14.24;100.00;101120.59;4838124;29;20060;-77
2023/10/08 08:09:19;;;;;;;6.82;6.13;;;;;;;14.23;100.00;101116.28;4851336;29;20390;-77
2023/10/08 08:11:46;;;;;;;7.40;6.45;;;;;;;14.29;100.00;101106.84;4844964;29;20040;-77
2023/10/08 08:14:16;;;;;;;8.38;6.40;;;;;;;14.33;100.00;101115.38;4847887;29;20030;-76
2023/10/08 08:16:48;;;;;;;8.77;6.43;;;;;;;14.35;100.00;101108.09;4812944;29;20680;-77
2023/10/08 08:19:15;;;;;;;8.05;6.07;;;;;;;14.34;100.00;101107.25;4837378;29;20592;-77
2023/10/08 08:21:45;;;;;;;7.53;6.32;;;;;;;14.35;100.00;101111.56;4826616;29;20045;-79
2023/10/08 08:24:28;;;;;;;10.38;7.30;;;;;;;14.41;100.00;101119.94;4837167;29;20029;-78
2023/10/08 08:27:11;;;;;;;9.07;6.95;;;;;;;14.42;100.00;101121.59;4823153;29;20053;-79
2023/10/08 08:29:48;;;;;;;9.75;7.35;;;;;;;14.42;100.00;101106.47;4835437;29;20038;-80
2023/10/08 08:32:15;;;;;;;9.35;7.15;;;;;;;14.43;100.00;101109.97;4838445;29;20038;-77
2023/10/08 08:34:43;;;;;;;7.50;5.85;;;;;;;14.48;100.00;101108.53;4824466;29;20167;-78
2023/10/08 08:37:13;;;;;;;6.75;5.72;;;;;;;14.53;100.00;101113.38;4848862;29;20048;-78
2023/10/08 08:39:41;;;;;;;8.10;5.20;;;;;;;14.52;100.00;101111.72;4834151;29;20053;-76
2023/10/08 08:42:07;;;;;;;7.30;5.70;;;;;;;14.54;100.00;101108.91;4823441;29;20037;-76
2023/10/08 08:44:45;;;;;;;7.00;5.65;;;;;;;14.63;100.00;101102.66;4851690;29;20483;-77
2023/10/08 08:47:15;;;;;;;6.93;5.90;;;;;;;14.58;100.00;101108.44;4826530;29;20167;-76
2023/10/08 08:49:42;;;;;;;8.80;6.32;;;;;;;14.56;100.00;101115.72;4845696;29;20042;-77
2023/10/08 08:52:08;;;;;;;8.68;6.25;;;;;;;14.54;100.00;101122.19;4829500;29;20037;-77
2023/10/08 08:54:36;;;;;;;8.20;6.28;;;;;;;14.59;100.00;101109.25;4847174;29;20491;-79
2023/10/08 08:57:04;;;;;;;7.75;6.00;;;;;;;14.59;100.00;101085.31;4853066;29;20045;-78
2023/10/08 08:59:31;;;;;;;7.45;5.93;;;;;;;14.57;100.00;101080.13;4832952;29;20536;-77
2023/10/08 09:01:59;;;;;;;9.90;5.90;;;;;;;14.56;100.00;101088.28;4820856;29;20041;-77
2023/10/08 09:04:30;;;;;;;6.93;5.68;;;;;;;14.55;100.00;101090.13;4818135;29;20132;-76
2023/10/08 09:06:57;;;;;;;8.05;6.07;;;;;;;14.59;100.00;101106.59;4835705;29;20391;-77
2023/10/08 09:09:30;;;;;;;7.40;5.68;;;;;;;14.68;100.00;101112.81;4853967;29;20037;-77
2023/10/08 09:11:57;;;;;;;6.47;5.78;;;;;;;14.85;100.00;101109.31;4855239;29;20037;-77
2023/10/08 09:14:34;;;;;;;7.00;6.30;;;;;;;14.95;100.00;101098.56;4849784;29;20040;-77
2023/10/08 09:17:04;;;;;;;7.28;6.57;;;;;;;15.05;100.00;101114.41;4844930;29;20459;-76
2023/10/08 09:19:29;;;;;;;7.45;6.18;;;;;;;15.16;100.00;101083.19;4852569;29;20048;-78
2023/10/08 09:22:04;;;;;;;7.00;6.30;;;;;;;15.27;100.00;101074.94;4853957;29;20042;-78
2023/10/08 09:24:36;;;;;;;10.77;6.15;;;;;;;15.31;100.00;101078.09;4832710;29;20049;-78
2023/10/08 09:27:04;;;;;;;6.95;5.90;;;;;;;15.35;100.00;101084.78;4823685;29;20068;-78
2023/10/08 09:29:30;;;;;;;8.40;5.70;;;;;;;15.41;100.00;101091.28;4826024;29;20041;-78
2023/10/08 09:31:57;;;;;;;8.40;6.55;;;;;;;15.55;100.00;101064.03;4853608;29;20037;-78
2023/10/08 09:34:28;;;;;;;6.03;5.15;;;;;;;15.64;100.00;101051.56;4854174;29;20566;-77
2023/10/08 09:36:56;;;;;;;6.72;5.15;;;;;;;15.67;100.00;101067.22;4838528;29;20041;-77
2023/10/08 09:39:28;;;;;;;6.32;4.70;;;;;;;15.77;100.00;101061.75;4849247;29;20472;-78
2023/10/08 09:41:57;;;;;;;8.45;5.10;;;;;;;15.90;100.00;101073.75;4847464;29;20041;-77
2023/10/08 09:44:24;;;;;;;5.75;4.30;;;;;;;15.91;100.00;101088.78;4836180;29;20498;-78
2023/10/08 09:47:12;;;;;;;5.78;4.10;;;;;;;16.05;100.00;101088.19;4832741;29;20048;-77
2023/10/08 09:50:01;;;;;;;5.78;4.20;;;;;;;16.13;100.00;101076.69;4837667;29;20093;-77
2023/10/08 09:52:39;;;;;;;4.15;3.75;;;;;;;16.26;100.00;101091.34;4832219;29;20085;-78
2023/10/08 09:55:12;;;;;;;5.78;4.20;;;;;;;16.36;100.00;101092.84;4839899;29;20041;-78
2023/10/08 09:57:38;;;;;;;11.90;4.80;;;;;;;16.41;100.00;101092.34;4822460;29;20037;-77
2023/10/08 10:00:10;;;;;;;5.55;3.75;;;;;;;16.49;100.00;101091.50;4840468;29;20113;-77
2023/10/08 10:02:37;;;;;;;4.68;3.50;;;;;;;16.49;100.00;101099.50;4835041;29;20042;-77
2023/10/08 10:05:06;;;;;;;6.78;3.60;;;;;;;16.54;100.00;101089.19;4822213;29;21281;-78
2023/10/08 10:07:31;;;;;;;7.10;4.05;;;;;;;16.60;100.00;101087.66;4842066;29;20037;-77
2023/10/08 10:09:57;;;;;;;6.28;3.60;;;;;;;16.66;100.00;101096.84;4839533;29;20049;-78
2023/10/08 10:12:26;;;;;;;5.10;3.85;;;;;;;16.75;100.00;101095.81;4840214;29;20034;-77
2023/10/08 10:14:56;;;;;;;5.80;3.85;;;;;;;16.78;100.00;101092.81;4848514;29;20487;-78
2023/10/08 10:17:25;;;;;;;7.28;4.53;;;;;;;16.83;100.00;101093.13;4838467;29;20021;-77
2023/10/08 10:20:00;;;;;;;5.57;4.40;;;;;;;16.97;100.00;101093.44;4837333;29;20029;-77
2023/10/08 10:22:34;;;;;;;5.20;4.05;;;;;;;17.06;100.00;101102.25;4847097;29;20026;-79
2023/10/08 10:25:14;;;;;;;4.60;3.83;;;;;;;17.13;100.00;101107.78;4854823;29;20038;-80
2023/10/08 10:28:00;;;;;;;4.75;4.15;;;;;;;17.17;100.00;101111.78;4825025;29;20057;-78
2023/10/08 10:30:27;;;;;;;5.40;3.90;;;;;;;17.15;100.00;101116.47;4811642;29;20117;-81
2023/10/08 10:33:02;;;;;;;9.27;4.80;;;;;;;17.23;100.00;101124.47;4807588;29;20037;-79
2023/10/08 10:35:28;;;;;;;5.63;4.33;;;;;;;17.21;100.00;101123.78;4835661;29;20033;-79
2023/10/08 10:38:03;;;;;;;6.13;4.43;;;;;;;17.28;100.00;101113.25;4838850;29;21013;-80
2023/10/08 10:40:38;;;;;;;6.13;4.70;;;;;;;17.37;100.00;101120.22;4837895;29;20522;-80
2023/10/08 10:43:06;;;;;;;6.82;4.55;;;;;;;17.45;100.00;101127.38;4851625;29;20067;-79
2023/10/08 10:45:46;;;;;;;;;;;;;;;;;;;;;
2023/10/08 10:51:08;;;;;;;4.90;4.25;;;;;;;17.53;100.00;101139.88;4832815;29;20038;-80
2023/10/08 10:53:55;;;;;;;5.45;4.65;;;;;;;17.48;100.00;101157.28;4815527;29;20066;-80
2023/10/08 10:56:29;;;;;;;5.97;4.68;;;;;;;17.46;100.00;101163.78;4834429;29;20506;-80
2023/10/08 10:59:15;;;;;;;12.82;5.10;;;;;;;17.49;100.00;101160.75;4822341;29;20159;-80
2023/10/08 11:01:46;;;;;;;6.18;4.40;;;;;;;17.43;100.00;101161.44;4787553;29;20097;-79
2023/10/08 11:04:15;;;;;;;9.88;5.82;;;;;;;17.51;100.00;101171.28;4831964;29;20132;-80
2023/10/08 11:06:46;;;;;;;10.32;5.65;;;;;;;17.57;100.00;101163.41;4820122;29;20042;-80
2023/10/08 11:09:15;;;;;;;10.27;5.20;;;;;;;17.55;100.00;101167.28;4833550;29;20030;-81
2023/10/08 11:11:44;;;;;;;10.82;5.68;;;;;;;17.59;100.00;101160.56;4800723;29;20056;-80
2023/10/08 11:14:18;;;;;;;11.85;5.78;;;;;;;17.59;100.00;101152.53;4818554;29;20125;-80
2023/10/08 11:16:45;;;;;;;8.15;5.18;;;;;;;17.55;100.00;101159.25;4821766;29;20064;-81
2023/10/08 11:19:15;;;;;;;12.05;4.80;;;;;;;17.61;100.00;101164.72;4833938;29;20034;-80
2023/10/08 11:21:53;;;;;;;8.43;4.57;;;;;;;17.77;100.00;101154.97;4789051;29;20502;-80
2023/10/08 11:24:33;;;;;;;8.35;4.60;;;;;;;17.95;100.00;101162.72;4833133;29;20037;-79
2023/10/08 11:27:15;;;;;;;8.88;4.63;;;;;;;18.05;100.00;101153.63;4824018;29;20059;-80
2023/10/08 11:29:47;;;;;;;6.88;4.68;;;;;;;18.26;100.00;101149.53;4824986;29;20045;-81
2023/10/08 11:32:19;;;;;;;7.82;4.63;;;;;;;18.35;100.00;101143.09;4818068;29;20030;-80
2023/10/08 11:34:50;;;;;;;7.10;4.80;;;;;;;18.47;100.00;101138.16;4807493;29;20042;-81
2023/10/08 11:37:36;;;;;;;6.15;4.55;;;;;;;18.67;100.00;101127.78;4835876;29;20299;-80
2023/10/08 11:40:17;;;;;;;8.40;4.85;;;;;;;18.84;100.00;101136.47;4837020;29;20044;-79
2023/10/08 11:42:43;;;;;;;7.20;4.03;;;;;;;18.95;100.00;101131.72;4837544;29;20037;-81
2023/10/08 11:45:26;;;;;;;8.68;4.75;;;;;;;19.13;100.00;101141.28;4814331;29;20128;-81
2023/10/08 11:47:56;;;;;;;9.20;4.38;;;;;;;19.25;100.00;101122.88;4820303;29;20067;-79
2023/10/08 11:50:31;;;;;;;8.65;3.90;;;;;;;19.36;100.00;101116.22;4819565;29;20463;-78
2023/10/08 11:53:02;;;;;;;9.13;4.30;;;;;;;19.45;100.00;101115.09;4816845;29;20391;-78
2023/10/08 11:55:34;;;;;;;5.03;4.13;;;;;;;19.53;100.00;101114.97;4819940;29;20765;-79
2023/10/08 11:58:00;;;;;;;5.28;3.50;;;;;;;19.59;100.00;101118.75;4802966;29;20065;-78
2023/10/08 12:00:26;;;;;;;8.35;3.30;;;;;;;19.69;100.00;101099.69;4786324;29;21307;-79
2023/10/08 12:03:10;;;;;;;8.95;3.70;;;;;;;19.73;100.00;101109.03;4834106;29;20042;-79
2023/10/08 12:05:38;;;;;;;11.05;3.55;;;;;;;19.66;100.00;101121.53;4821260;29;20122;-79
2023/10/08 12:17:42;;;;;;;7.93;3.50;;;;;;;19.54;100.00;101103.22;4799187;29;20470;-79
2023/10/08 12:21:10;;;;;;;7.20;3.30;;;;;;;19.58;100.00;101099.16;4788810;29;20149;-79
2023/10/08 12:30:30;;;;;;;7.20;3.28;;;;;;;19.91;100.00;101081.75;4798588;29;20047;-79
2023/10/08 12:34:25;;;;;;;9.13;3.70;;;;;;;20.08;100.00;101085.06;4751396;29;20534;-78
2023/10/08 13:02:53;;;;;;;5.28;2.78;;;;;;;20.65;100.00;101060.13;4732779;30;20171;-87
2023/10/08 13:13:18;;;;;;;;;;;;;;;20.68;100.00;101045.44;4710128;30;20110;-86
2023/10/08 13:36:50;;;;;;;;;;;;;;;;;;;;;
2023/10/08 14:15:36;;;;;;;;;;;;;;;;;;;;;
2023/10/08 14:19:05;;;;;;;3.63;2.38;;;;;;;21.12;100.00;101040.75;4645390;30;20100;-86
2023/10/08 14:25:27;;;;;;;4.00;2.63;;;;;;;21.17;100.00;101030.22;4746721;30;20043;-80
2023/10/08 14:27:53;;;;;;;3.88;2.50;;;;;;;21.18;100.00;101029.19;4725295;30;20121;-84
2023/10/08 14:30:40;;;;;;;4.78;2.67;;;;;;;21.23;100.00;101033.97;4731248;30;20049;-85
2023/10/08 14:33:24;;;;;;;4.07;2.80;;;;;;;21.27;100.00;101037.91;4728035;30;20044;-86
2023/10/08 14:45:49;;;;;;;4.10;2.30;;;;;;;21.31;100.00;101041.00;4815408;29;20454;-88
2023/10/08 14:50:05;;;;;;;6.90;2.90;;;;;;;21.26;100.00;101048.88;4805789;29;20038;-87
2023/10/08 14:58:17;;;;;;;;;;;;;;;;;;;;;
2023/10/08 15:02:18;;;;;;;3.83;3.10;;;;;;;21.12;100.00;101059.56;4764642;29;20036;-87
2023/10/08 15:15:22;;;;;;;;;;;;;;;;;;;;;
2023/10/08 15:18:06;;;;;;;9.55;3.20;;;;;;;20.98;100.00;101047.91;4661338;30;20050;-86
2023/10/08 15:21:02;;;;;;;5.45;2.75;;;;;;;20.92;100.00;101041.50;4721014;29;20049;-88
2023/10/08 15:24:23;;;;;;;6.13;3.33;;;;;;;20.88;100.00;101039.38;4801525;29;20198;-87
2023/10/08 15:43:51;;;;;;;;;;;;;;;;;;;;;
2023/10/08 16:03:45;;;;;;;7.80;3.90;;;;;;;20.32;100.00;101023.13;4777230;29;20042;-86
2023/10/08 16:06:12;;;;;;;5.60;4.10;;;;;;;20.24;100.00;101031.31;4774784;29;20050;-87
2023/10/08 16:08:58;;;;;;;6.05;3.78;;;;;;;20.22;100.00;101031.50;4789900;29;20038;-86
2023/10/08 16:11:24;;;;;;;4.60;3.92;;;;;;;20.20;100.00;101044.28;4796850;29;20061;-86
2023/10/08 16:13:57;;;;;;;8.18;3.67;;;;;;;20.12;100.00;101047.09;4793426;29;20070;-88
2023/10/08 16:16:23;;;;;;;4.65;3.80;;;;;;;20.03;100.00;101049.09;4802826;29;20112;-87
2023/10/08 16:18:48;;;;;;;8.65;4.47;;;;;;;19.87;100.00;101047.47;4796008;29;20030;-87
2023/10/08 16:21:14;;;;;;;5.07;3.95;;;;;;;19.73;100.00;101044.66;4790870;29;20087;-83
2023/10/08 16:23:41;;;;;;;6.10;3.70;;;;;;;19.63;100.00;101044.13;4807031;29;20034;-85
2023/10/08 16:26:09;;;;;;;6.00;4.00;;;;;;;19.60;100.00;101045.34;4790377;29;20042;-86
2023/10/08 16:28:35;;;;;;;6.63;4.05;;;;;;;19.50;100.00;101032.25;4779691;29;20045;-85
2023/10/08 16:31:03;;;;;;;8.32;4.32;;;;;;;19.45;100.00;101023.94;4830464;29;20048;-87
2023/10/08 16:33:30;;;;;;;5.90;4.00;;;;;;;19.42;100.00;101027.84;4816923;29;20041;-86
2023/10/08 16:35:56;;;;;;;8.90;4.25;;;;;;;19.40;100.00;101023.69;4833912;29;20552;-86